createdAt,value
2018-03-25T00:02:18.648Z,5.00
2018-03-25T00:04:46.183Z,4.90
2018-03-25T00:07:13.703Z,4.90
2018-03-25T00:09:41.228Z,4.90
2018-03-25T00:12:08.742Z,4.90
2018-03-25T00:14:36.315Z,4.90
2018-03-25T00:17:03.994Z,4.80
2018-03-25T00:19:31.627Z,4.80
2018-03-25T00:22:00.078Z,4.80
2018-03-25T00:24:27.618Z,4.80
2018-03-25T00:26:55.152Z,4.80
2018-03-25T00:29:23.467Z,4.80
2018-03-25T00:31:51.184Z,4.80
2018-03-25T00:34:18.785Z,4.80
2018-03-25T00:36:46.303Z,4.70
2018-03-25T00:39:13.825Z,4.70
2018-03-25T00:41:41.365Z,4.70
2018-03-25T00:44:08.872Z,4.60
2018-03-25T00:46:37.211Z,4.50
2018-03-25T00:49:04.847Z,4.50
2018-03-25T00:51:32.490Z,4.50
2018-03-25T00:54:00.215Z,4.40
2018-03-25T00:56:27.832Z,4.30
2018-03-25T00:58:55.427Z,4.30
2018-03-25T01:01:22.967Z,4.20
2018-03-25T01:03:51.420Z,4.20
2018-03-25T01:06:18.977Z,4.10
2018-03-25T01:08:46.505Z,4.10
2018-03-25T01:11:14.043Z,4.10
2018-03-25T01:13:41.557Z,4.10
2018-03-25T01:16:09.989Z,4.10
2018-03-25T01:18:37.498Z,4.10
2018-03-25T01:21:05.092Z,4.00
2018-03-25T01:23:32.782Z,4.00
2018-03-25T01:26:01.294Z,3.90
2018-03-25T01:28:29.090Z,3.90
2018-03-25T01:30:56.622Z,3.90
2018-03-25T01:33:24.924Z,3.80
2018-03-25T01:35:53.250Z,3.80
2018-03-25T01:38:20.846Z,3.80
2018-03-25T01:40:49.248Z,3.80
2018-03-25T01:43:17.440Z,3.70
2018-03-25T01:45:45.775Z,3.70
2018-03-25T01:48:13.306Z,3.70
2018-03-25T01:50:41.600Z,3.60
2018-03-25T01:53:10.199Z,3.60
2018-03-25T01:55:38.473Z,3.50
2018-03-25T01:58:06.092Z,3.50
2018-03-25T02:00:33.716Z,3.50
2018-03-25T02:03:01.349Z,3.50
2018-03-25T02:05:30.171Z,3.50
2018-03-25T02:07:58.595Z,3.40
2018-03-25T02:10:26.151Z,3.40
2018-03-25T02:12:54.456Z,3.40
2018-03-25T02:15:22.856Z,3.30
2018-03-25T02:17:51.056Z,3.30
2018-03-25T02:20:18.582Z,3.40
2018-03-25T02:22:46.120Z,3.40
2018-03-25T02:25:13.642Z,3.40
2018-03-25T02:27:41.947Z,3.40
2018-03-25T02:30:09.459Z,3.40
2018-03-25T02:32:37.190Z,3.40
2018-03-25T02:35:04.810Z,3.40
2018-03-25T02:37:32.406Z,3.40
2018-03-25T02:40:00.148Z,3.50
2018-03-25T02:42:27.715Z,3.50
2018-03-25T02:44:55.245Z,3.50
2018-03-25T02:47:23.558Z,3.50
2018-03-25T02:49:51.299Z,3.50
2018-03-25T02:52:18.961Z,3.40
2018-03-25T02:54:47.255Z,3.30
2018-03-25T02:57:14.774Z,3.30
2018-03-25T02:59:42.317Z,3.30
2018-03-25T03:02:10.602Z,3.30
2018-03-25T03:04:38.907Z,3.30
2018-03-25T03:07:06.560Z,3.30
2018-03-25T03:09:34.910Z,3.30
2018-03-25T03:12:03.280Z,3.20
2018-03-25T03:14:30.919Z,3.20
2018-03-25T03:16:59.733Z,3.20
2018-03-25T03:19:27.278Z,3.10
2018-03-25T03:21:55.555Z,3.10
2018-03-25T03:24:23.184Z,3.10
2018-03-25T03:26:50.807Z,3.10
2018-03-25T03:29:18.646Z,3.00
2018-03-25T03:31:46.161Z,3.10
2018-03-25T03:34:14.435Z,3.00
2018-03-25T03:36:41.983Z,3.00
2018-03-25T03:39:09.514Z,2.90
2018-03-25T03:41:37.138Z,2.90
2018-03-25T03:44:05.512Z,2.80
2018-03-25T03:46:33.863Z,2.80
2018-03-25T03:49:01.762Z,2.80
2018-03-25T03:51:29.288Z,2.80
2018-03-25T03:53:57.644Z,2.70
2018-03-25T03:56:25.259Z,2.70
2018-03-25T03:58:53.555Z,2.70
2018-03-25T04:01:21.151Z,2.70
2018-03-25T04:03:48.678Z,2.60
2018-03-25T04:06:17.002Z,2.60
2018-03-25T04:08:44.511Z,2.60
2018-03-25T04:11:12.788Z,2.60
2018-03-25T04:13:40.334Z,2.60
2018-03-25T04:16:07.852Z,2.60
2018-03-25T04:18:35.463Z,2.60
2018-03-25T04:21:03.152Z,2.60
2018-03-25T04:23:30.722Z,2.60
2018-03-25T04:25:58.375Z,2.60
2018-03-25T04:28:25.906Z,2.60
2018-03-25T04:30:53.481Z,2.50
2018-03-25T04:33:21.174Z,2.50
2018-03-25T04:35:48.741Z,2.50
2018-03-25T04:38:16.322Z,2.40
2018-03-25T04:40:43.840Z,2.40
2018-03-25T04:43:11.407Z,2.40
2018-03-25T04:45:38.919Z,2.30
2018-03-25T04:48:06.513Z,2.30
2018-03-25T04:50:34.958Z,2.20
2018-03-25T04:53:03.034Z,2.20
2018-03-25T04:55:30.799Z,2.10
2018-03-25T04:57:58.396Z,2.10
2018-03-25T05:00:25.971Z,2.10
2018-03-25T05:02:53.496Z,2.00
2018-03-25T05:05:21.902Z,2.00
2018-03-25T05:07:49.518Z,2.00
2018-03-25T05:10:17.120Z,2.00
2018-03-25T05:12:45.416Z,1.90
2018-03-25T05:15:12.929Z,1.90
2018-03-25T05:17:40.465Z,1.90
2018-03-25T05:20:07.987Z,1.90
2018-03-25T05:22:35.812Z,1.90
2018-03-25T05:25:03.558Z,1.90
2018-03-25T05:27:31.145Z,1.80
2018-03-25T05:29:59.334Z,1.70
2018-03-25T05:32:26.887Z,1.70
2018-03-25T05:34:54.525Z,1.70
2018-03-25T05:37:22.291Z,1.70
2018-03-25T05:39:50.157Z,1.60
2018-03-25T05:42:17.713Z,1.60
2018-03-25T05:44:45.989Z,1.60
2018-03-25T05:47:14.304Z,1.70
2018-03-25T05:49:41.828Z,1.60
2018-03-25T05:52:09.376Z,1.70
2018-03-25T05:54:36.952Z,1.70
2018-03-25T05:57:04.622Z,1.70
2018-03-25T05:59:32.275Z,1.70
2018-03-25T06:02:00.048Z,1.70
2018-03-25T06:04:28.553Z,1.80
2018-03-25T06:06:56.893Z,1.80
2018-03-25T06:09:25.204Z,1.80
2018-03-25T06:11:52.764Z,1.80
2018-03-25T06:14:21.089Z,1.80
2018-03-25T06:16:48.665Z,1.80
2018-03-25T06:19:16.195Z,1.80
2018-03-25T06:21:44.487Z,1.90
2018-03-25T06:24:12.777Z,2.00
2018-03-25T06:26:41.320Z,2.10
2018-03-25T06:29:09.113Z,2.10
2018-03-25T06:31:36.786Z,2.20
2018-03-25T06:34:05.003Z,2.30
2018-03-25T06:36:33.392Z,2.70
2018-03-25T06:39:01.220Z,2.70
2018-03-25T06:41:29.022Z,2.90
2018-03-25T06:43:57.445Z,3.30
2018-03-25T06:46:25.048Z,3.30
2018-03-25T06:48:52.820Z,3.60
2018-03-25T06:51:20.443Z,3.80
2018-03-25T06:53:48.009Z,4.10
2018-03-25T06:56:15.539Z,4.30
2018-03-25T06:58:43.060Z,4.50
2018-03-25T07:01:11.367Z,4.90
2018-03-25T07:03:38.883Z,4.90
2018-03-25T07:06:06.407Z,5.10
2018-03-25T07:08:34.026Z,5.30
2018-03-25T07:11:01.645Z,5.50
2018-03-25T07:13:29.348Z,5.70
2018-03-25T07:15:56.859Z,6.00
2018-03-25T07:18:24.404Z,6.20
2018-03-25T07:20:51.998Z,6.30
2018-03-25T07:23:19.567Z,6.50
2018-03-25T07:25:47.119Z,6.60
2018-03-25T07:28:14.628Z,6.80
2018-03-25T07:30:42.165Z,6.90
2018-03-25T07:33:09.672Z,7.10
2018-03-25T07:35:37.971Z,7.30
2018-03-25T07:38:06.929Z,7.40
2018-03-25T07:40:34.822Z,7.40
2018-03-25T07:43:02.509Z,7.60
2018-03-25T07:45:30.319Z,7.70
2018-03-25T07:47:57.918Z,7.70
2018-03-25T07:50:25.516Z,7.80
2018-03-25T07:52:55.115Z,8.00
2018-03-25T07:55:22.631Z,8.10
2018-03-25T07:57:50.224Z,8.40
2018-03-25T08:00:17.817Z,8.50
2018-03-25T08:02:45.324Z,8.70
2018-03-25T08:05:12.868Z,8.80
2018-03-25T08:07:40.379Z,8.90
2018-03-25T08:10:07.951Z,9.10
2018-03-25T08:12:35.560Z,9.30
2018-03-25T08:15:03.152Z,9.40
2018-03-25T08:17:30.843Z,9.70
2018-03-25T08:19:58.575Z,9.90
2018-03-25T08:22:26.131Z,10.20
2018-03-25T08:24:54.411Z,10.40
2018-03-25T08:27:21.955Z,10.40
2018-03-25T08:29:49.596Z,10.40
2018-03-25T08:32:17.111Z,10.50
2018-03-25T08:34:44.656Z,10.70
2018-03-25T08:37:12.180Z,10.70
2018-03-25T08:39:41.135Z,10.90
2018-03-25T08:42:08.659Z,10.80
2018-03-25T08:44:36.199Z,11.00
2018-03-25T08:47:03.837Z,11.00
2018-03-25T08:49:31.525Z,11.10
2018-03-25T08:51:59.299Z,11.30
2018-03-25T08:54:26.835Z,11.70
2018-03-25T08:56:54.392Z,11.60
2018-03-25T08:59:21.961Z,11.90
2018-03-25T09:01:49.657Z,12.10
2018-03-25T09:04:17.204Z,12.10
2018-03-25T09:06:44.731Z,12.10
2018-03-25T09:09:12.303Z,12.20
2018-03-25T09:11:39.823Z,12.50
2018-03-25T09:14:08.139Z,12.90
2018-03-25T09:16:35.875Z,12.80
2018-03-25T09:19:04.300Z,12.90
2018-03-25T09:21:32.036Z,12.90
2018-03-25T09:23:59.754Z,13.20
2018-03-25T09:26:27.307Z,13.30
2018-03-25T09:28:54.832Z,13.50
2018-03-25T09:31:22.377Z,13.50
2018-03-25T09:33:50.038Z,13.70
2018-03-25T09:36:17.589Z,13.80
2018-03-25T09:38:45.124Z,13.60
2018-03-25T09:41:12.664Z,13.90
2018-03-25T09:43:40.200Z,14.10
2018-03-25T09:46:07.728Z,14.40
2018-03-25T09:48:35.420Z,14.30
2018-03-25T09:51:03.101Z,14.50
2018-03-25T09:53:31.675Z,15.00
2018-03-25T09:55:59.434Z,15.00
2018-03-25T09:58:27.033Z,15.00
2018-03-25T10:01:00.131Z,15.10
2018-03-25T10:03:30.812Z,15.50
2018-03-25T10:05:58.873Z,15.80
2018-03-25T10:08:26.430Z,15.90
2018-03-25T10:10:53.993Z,15.80
2018-03-25T10:13:21.586Z,15.90
2018-03-25T10:15:49.150Z,16.00
2018-03-25T10:18:16.720Z,16.00
2018-03-25T10:20:44.235Z,16.10
2018-03-25T10:23:11.771Z,16.10
2018-03-25T10:25:40.170Z,16.60
2018-03-25T10:28:08.475Z,16.60
2018-03-25T10:30:36.047Z,16.60
2018-03-25T10:33:03.960Z,16.80
2018-03-25T10:35:31.736Z,17.00
2018-03-25T10:38:00.293Z,17.30
2018-03-25T10:40:27.863Z,17.30
2018-03-25T10:42:55.391Z,17.30
2018-03-25T10:45:22.930Z,17.30
2018-03-25T10:47:51.055Z,17.30
2018-03-25T10:50:18.739Z,17.40
2018-03-25T10:52:46.296Z,17.30
2018-03-25T10:55:13.828Z,17.50
2018-03-25T10:57:41.380Z,17.70
2018-03-25T11:00:08.892Z,17.80
2018-03-25T11:02:36.448Z,18.10
2018-03-25T11:05:04.076Z,18.30
2018-03-25T11:07:32.597Z,18.50
2018-03-25T11:10:00.428Z,18.60
2018-03-25T11:12:28.086Z,18.70
2018-03-25T11:14:55.932Z,18.70
2018-03-25T11:17:23.461Z,18.80
2018-03-25T11:19:51.831Z,19.20
2018-03-25T11:22:19.477Z,19.20
2018-03-25T11:24:47.775Z,19.50
2018-03-25T11:27:15.326Z,19.50
2018-03-25T11:29:42.845Z,19.10
2018-03-25T11:32:10.395Z,19.00
2018-03-25T11:34:37.956Z,18.50
2018-03-25T11:37:06.160Z,18.50
2018-03-25T11:39:33.709Z,18.50
2018-03-25T11:42:01.599Z,18.40
2018-03-25T11:44:29.281Z,18.70
2018-03-25T11:46:56.800Z,18.90
2018-03-25T11:49:24.347Z,18.70
2018-03-25T11:51:52.041Z,17.80
2018-03-25T11:54:20.576Z,16.50
2018-03-25T11:56:48.123Z,16.50
2018-03-25T11:59:15.658Z,16.30
2018-03-25T12:01:43.176Z,16.70
2018-03-25T12:04:10.711Z,17.00
2018-03-25T12:06:38.991Z,18.20
2018-03-25T12:09:07.344Z,18.40
2018-03-25T12:11:34.910Z,18.40
2018-03-25T12:14:02.501Z,18.50
2018-03-25T12:16:30.942Z,19.50
2018-03-25T12:18:58.770Z,19.40
2018-03-25T12:21:26.316Z,19.50
2018-03-25T12:23:53.848Z,19.50
2018-03-25T12:26:21.399Z,19.50
2018-03-25T12:28:49.732Z,19.90
2018-03-25T12:31:17.290Z,19.80
2018-03-25T12:33:45.184Z,20.20
2018-03-25T12:36:12.720Z,20.10
2018-03-25T12:38:42.025Z,20.20
2018-03-25T12:41:09.582Z,20.20
2018-03-25T12:43:37.119Z,19.90
2018-03-25T12:46:04.916Z,20.20
2018-03-25T12:48:33.912Z,19.80
2018-03-25T12:51:02.405Z,20.40
2018-03-25T12:53:30.089Z,20.40
2018-03-25T12:55:58.884Z,20.10
2018-03-25T12:58:27.259Z,19.70
2018-03-25T13:00:55.264Z,19.70
2018-03-25T13:03:22.796Z,19.70
2018-03-25T13:05:50.320Z,19.80
2018-03-25T13:08:17.869Z,19.40
2018-03-25T13:10:45.400Z,18.90
2018-03-25T13:13:12.933Z,19.00
2018-03-25T13:15:40.471Z,18.40
2018-03-25T13:18:08.027Z,18.20
2018-03-25T13:20:36.378Z,18.60
2018-03-25T13:23:05.089Z,19.20
2018-03-25T13:25:32.789Z,19.50
2018-03-25T13:28:00.381Z,18.90
2018-03-25T13:30:27.966Z,18.10
2018-03-25T13:32:56.396Z,17.00
2018-03-25T13:35:24.707Z,16.60
2018-03-25T13:37:52.269Z,16.60
2018-03-25T13:40:19.882Z,16.50
2018-03-25T13:42:47.449Z,16.50
2018-03-25T13:45:14.968Z,16.60
2018-03-25T13:47:43.267Z,16.90
2018-03-25T13:50:10.794Z,16.90
2018-03-25T13:52:38.340Z,17.10
2018-03-25T13:55:05.862Z,17.40
2018-03-25T13:57:34.295Z,17.60
2018-03-25T14:00:01.955Z,17.60
2018-03-25T14:02:29.588Z,17.90
2018-03-25T14:04:57.926Z,18.20
2018-03-25T14:07:25.492Z,18.20
2018-03-25T14:09:53.050Z,18.40
2018-03-25T14:12:20.598Z,18.50
2018-03-25T14:14:48.110Z,18.70
2018-03-25T14:17:15.655Z,18.70
2018-03-25T14:19:43.936Z,18.70
2018-03-25T14:22:12.235Z,18.30
2018-03-25T14:24:39.776Z,18.30
2018-03-25T14:27:07.312Z,17.80
2018-03-25T14:29:34.869Z,17.00
2018-03-25T14:32:03.021Z,16.60
2018-03-25T14:34:30.891Z,16.50
2018-03-25T14:37:00.228Z,15.60
2018-03-25T14:39:27.788Z,15.60
2018-03-25T14:41:56.080Z,15.30
2018-03-25T14:44:24.449Z,15.10
2018-03-25T14:46:51.975Z,15.10
2018-03-25T14:49:19.568Z,14.90
2018-03-25T14:51:47.108Z,14.80
2018-03-25T14:54:14.654Z,14.80
2018-03-25T14:56:42.939Z,14.60
2018-03-25T14:59:11.248Z,14.40
2018-03-25T15:01:38.796Z,14.40
2018-03-25T15:04:07.103Z,14.10
2018-03-25T15:06:34.800Z,14.20
2018-03-25T15:09:02.511Z,14.10
2018-03-25T15:11:30.225Z,14.00
2018-03-25T15:13:57.760Z,13.90
2018-03-25T15:16:25.360Z,13.70
2018-03-25T15:18:52.889Z,13.60
2018-03-25T15:21:20.459Z,13.60
2018-03-25T15:23:48.116Z,13.50
2018-03-25T15:26:15.667Z,13.40
2018-03-25T15:28:43.190Z,13.40
2018-03-25T15:31:10.721Z,13.40
2018-03-25T15:33:38.285Z,13.30
2018-03-25T15:36:05.892Z,13.30
2018-03-25T15:38:33.550Z,13.20
2018-03-25T15:41:01.121Z,13.20
2018-03-25T15:43:28.760Z,13.10
2018-03-25T15:45:56.308Z,12.90
2018-03-25T15:48:24.623Z,12.80
2018-03-25T15:50:52.167Z,12.80
2018-03-25T15:53:19.741Z,12.70
2018-03-25T15:55:48.040Z,12.60
2018-03-25T15:58:15.576Z,12.50
2018-03-25T16:00:43.138Z,12.60
2018-03-25T16:03:10.664Z,12.60
2018-03-25T16:05:38.279Z,12.40
2018-03-25T16:08:05.846Z,12.40
2018-03-25T16:10:33.479Z,12.40
2018-03-25T16:13:03.981Z,12.40
2018-03-25T16:15:32.336Z,12.10
2018-03-25T16:17:59.921Z,12.10
2018-03-25T16:20:28.294Z,12.00
2018-03-25T16:22:55.827Z,11.90
2018-03-25T16:25:23.371Z,11.90
2018-03-25T16:27:51.131Z,11.80
2018-03-25T16:30:19.558Z,11.70
2018-03-25T16:32:47.880Z,11.70
2018-03-25T16:35:15.439Z,11.70
2018-03-25T16:37:42.969Z,11.60
2018-03-25T16:40:10.508Z,11.50
2018-03-25T16:42:38.024Z,11.50
2018-03-25T16:45:06.917Z,11.40
2018-03-25T16:47:34.563Z,11.40
2018-03-25T16:50:02.195Z,11.30
2018-03-25T16:52:29.891Z,11.20
2018-03-25T16:54:57.441Z,11.30
2018-03-25T16:57:25.016Z,11.20
2018-03-25T16:59:53.173Z,11.10
2018-03-25T17:02:21.488Z,11.10
2018-03-25T17:04:49.087Z,11.00
2018-03-25T17:07:16.630Z,11.10
2018-03-25T17:09:44.162Z,11.00
2018-03-25T17:12:11.696Z,10.90
2018-03-25T17:14:39.224Z,10.90
2018-03-25T17:17:07.536Z,10.80
2018-03-25T17:19:35.159Z,10.80
2018-03-25T17:22:02.845Z,10.80
2018-03-25T17:24:31.988Z,10.70
2018-03-25T17:26:59.579Z,10.60
2018-03-25T17:29:27.344Z,10.60
2018-03-25T17:31:54.860Z,10.60
2018-03-25T17:34:22.436Z,10.60
2018-03-25T17:36:50.203Z,10.50
2018-03-25T17:39:17.772Z,10.50
2018-03-25T17:41:46.600Z,10.50
2018-03-25T17:44:14.912Z,10.40
2018-03-25T17:46:42.455Z,10.40
2018-03-25T17:49:10.031Z,10.40
2018-03-25T17:51:38.317Z,10.30
2018-03-25T17:54:06.636Z,10.30
2018-03-25T17:56:34.248Z,10.30
2018-03-25T17:59:01.911Z,10.20
2018-03-25T18:01:29.555Z,10.20
2018-03-25T18:03:57.083Z,10.20
2018-03-25T18:06:24.647Z,10.10
2018-03-25T18:08:52.206Z,10.10
2018-03-25T18:11:19.882Z,10.00
2018-03-25T18:13:49.696Z,10.00
2018-03-25T18:16:17.232Z,9.90
2018-03-25T18:18:44.744Z,9.90
2018-03-25T18:21:12.296Z,9.90
2018-03-25T18:23:39.803Z,9.90
2018-03-25T18:26:07.362Z,9.90
2018-03-25T18:28:34.950Z,9.80
2018-03-25T18:31:03.319Z,9.80
2018-03-25T18:33:30.989Z,9.70
2018-03-25T18:35:58.738Z,9.70
2018-03-25T18:38:26.279Z,9.60
2018-03-25T18:40:54.559Z,9.60
2018-03-25T18:43:22.863Z,9.50
2018-03-25T18:45:51.253Z,9.50
2018-03-25T18:48:18.830Z,9.50
2018-03-25T18:50:46.392Z,9.50
2018-03-25T18:53:15.279Z,9.40
2018-03-25T18:55:42.812Z,9.40
2018-03-25T18:58:10.331Z,9.50
2018-03-25T19:00:39.583Z,9.40
2018-03-25T19:03:07.103Z,9.40
2018-03-25T19:05:35.446Z,9.30
2018-03-25T19:08:03.120Z,9.20
2018-03-25T19:10:30.783Z,9.30
2018-03-25T19:12:58.455Z,9.30
2018-03-25T19:15:26.060Z,9.30
2018-03-25T19:17:53.580Z,9.30
2018-03-25T19:20:21.243Z,9.30
2018-03-25T19:22:48.850Z,9.20
2018-03-25T19:25:16.387Z,9.10
2018-03-25T19:27:44.757Z,9.10
2018-03-25T19:30:12.279Z,9.10
2018-03-25T19:32:39.823Z,9.00
2018-03-25T19:35:07.384Z,9.00
2018-03-25T19:37:35.729Z,8.90
2018-03-25T19:40:03.308Z,8.90
2018-03-25T19:42:30.972Z,8.90
2018-03-25T19:44:58.604Z,8.90
2018-03-25T19:47:26.264Z,8.90
2018-03-25T19:49:54.543Z,8.90
2018-03-25T19:52:22.135Z,8.90
2018-03-25T19:54:49.772Z,8.90
2018-03-25T19:57:17.321Z,8.80
2018-03-25T19:59:44.828Z,8.80
2018-03-25T20:02:12.371Z,8.80
2018-03-25T20:04:39.892Z,8.90
2018-03-25T20:07:08.197Z,8.70
2018-03-25T20:09:35.856Z,8.70
2018-03-25T20:12:03.444Z,8.70
2018-03-25T20:14:31.088Z,8.70
2018-03-25T20:16:59.639Z,8.70
2018-03-25T20:19:27.599Z,8.70
2018-03-25T20:21:55.111Z,8.70
2018-03-25T20:24:22.712Z,8.70
2018-03-25T20:26:50.285Z,8.60
2018-03-25T20:29:17.823Z,8.60
2018-03-25T20:31:45.339Z,8.60
2018-03-25T20:34:12.887Z,8.70
2018-03-25T20:36:41.180Z,8.60
2018-03-25T20:39:09.451Z,8.60
2018-03-25T20:41:37.204Z,8.60
2018-03-25T20:44:04.747Z,8.60
2018-03-25T20:46:32.357Z,8.50
2018-03-25T20:49:00.757Z,8.40
2018-03-25T20:51:28.550Z,8.40
2018-03-25T20:53:56.843Z,8.30
2018-03-25T20:56:25.155Z,8.30
2018-03-25T20:58:52.678Z,8.30
2018-03-25T21:01:20.296Z,8.30
2018-03-25T21:03:47.862Z,8.30
2018-03-25T21:06:15.380Z,8.30
2018-03-25T21:08:42.920Z,8.20
2018-03-25T21:11:10.434Z,8.20
2018-03-25T21:13:37.979Z,8.20
2018-03-25T21:16:07.286Z,8.20
2018-03-25T21:18:34.988Z,8.20
2018-03-25T21:21:02.550Z,8.20
2018-03-25T21:23:30.260Z,8.20
2018-03-25T21:25:57.780Z,8.20
2018-03-25T21:28:25.323Z,8.30
2018-03-25T21:30:52.855Z,8.40
2018-03-25T21:33:21.252Z,8.30
2018-03-25T21:35:50.178Z,8.30
2018-03-25T21:38:17.695Z,8.30
2018-03-25T21:40:45.228Z,8.30
2018-03-25T21:43:12.746Z,8.30
2018-03-25T21:45:40.280Z,8.20
2018-03-25T21:48:07.804Z,8.20
2018-03-25T21:50:35.364Z,8.10
2018-03-25T21:53:02.940Z,8.10
2018-03-25T21:55:31.292Z,8.10
2018-03-25T21:57:58.932Z,8.10
2018-03-25T22:00:26.454Z,8.10
2018-03-25T22:02:53.991Z,8.20
2018-03-25T22:05:22.463Z,8.10
2018-03-25T22:07:50.804Z,8.00
2018-03-25T22:10:18.335Z,8.00
2018-03-25T22:12:45.876Z,8.00
2018-03-25T22:15:14.160Z,8.00
2018-03-25T22:17:41.703Z,8.00
2018-03-25T22:20:09.223Z,8.00
2018-03-25T22:22:37.505Z,8.00
2018-03-25T22:25:05.134Z,8.00
2018-03-25T22:27:33.498Z,8.00
2018-03-25T22:30:01.083Z,7.90
2018-03-25T22:32:28.663Z,8.00
2018-03-25T22:34:56.207Z,8.00
2018-03-25T22:37:23.723Z,7.90
2018-03-25T22:39:51.360Z,7.90
2018-03-25T22:42:21.458Z,7.90
2018-03-25T22:44:49.811Z,7.90
2018-03-25T22:47:17.343Z,7.80
2018-03-25T22:49:44.864Z,7.80
2018-03-25T22:52:12.403Z,7.90
2018-03-25T22:54:39.919Z,7.90
2018-03-25T22:57:08.225Z,7.80
2018-03-25T22:59:35.856Z,7.80
2018-03-25T23:02:03.497Z,7.80
2018-03-25T23:04:31.100Z,7.70
2018-03-25T23:06:58.829Z,7.80
2018-03-25T23:09:26.352Z,7.70
2018-03-25T23:11:53.869Z,7.70
2018-03-25T23:14:21.483Z,7.70
2018-03-25T23:16:49.031Z,7.70
2018-03-25T23:19:16.584Z,7.60
2018-03-25T23:21:44.096Z,7.60
2018-03-25T23:24:12.233Z,7.60
2018-03-25T23:26:39.754Z,7.60
2018-03-25T23:29:07.431Z,7.60
2018-03-25T23:31:35.056Z,7.60
2018-03-25T23:34:02.780Z,7.60
2018-03-25T23:36:31.293Z,7.50
2018-03-25T23:38:58.900Z,7.50
2018-03-25T23:41:26.440Z,7.50
2018-03-25T23:43:55.408Z,7.60
2018-03-25T23:46:22.995Z,7.50
2018-03-25T23:48:50.654Z,7.60
2018-03-25T23:51:18.227Z,7.60
2018-03-25T23:53:45.747Z,7.50
2018-03-25T23:56:13.437Z,7.50
2018-03-25T23:58:40.992Z,7.50
